createdAt,value
2023-03-11T00:00:54.599Z,83.08
2023-03-11T00:03:24.906Z,83.46
2023-03-11T00:05:58.685Z,82.40
2023-03-11T00:08:29.591Z,83.24
2023-03-11T00:11:00.768Z,83.41
2023-03-11T00:13:30.638Z,82.15
2023-03-11T00:15:59.915Z,83.11
2023-03-11T00:18:31.723Z,83.62
2023-03-11T00:21:01.349Z,82.87
2023-03-11T00:23:30.066Z,82.75
2023-03-11T00:26:00.004Z,82.76
2023-03-11T00:28:28.790Z,83.28
2023-03-11T00:30:57.455Z,83.35
2023-03-11T00:33:26.622Z,83.37
2023-03-11T00:35:56.509Z,82.63
2023-03-11T00:38:25.048Z,82.53
2023-03-11T00:40:53.545Z,82.04
2023-03-11T00:43:22.018Z,82.28
2023-03-11T00:45:50.740Z,82.37
2023-03-11T00:48:19.288Z,81.69
2023-03-11T00:50:48.477Z,82.25
2023-03-11T00:53:18.302Z,81.63
2023-03-11T00:55:46.751Z,82.31
2023-03-11T00:58:15.231Z,81.26
2023-03-11T01:00:43.730Z,81.74
2023-03-11T01:03:12.256Z,82.75
2023-03-11T01:05:40.856Z,81.69
2023-03-11T01:08:10.367Z,81.40
2023-03-11T01:10:40.279Z,81.25
2023-03-11T01:13:08.976Z,81.68
2023-03-11T01:15:39.343Z,80.18
2023-03-11T01:18:08.704Z,81.33
2023-03-11T01:20:39.160Z,81.21
2023-03-11T01:23:08.781Z,81.01
2023-03-11T01:25:39.248Z,80.60
2023-03-11T01:28:08.707Z,80.17
2023-03-11T01:30:39.768Z,81.99
2023-03-11T01:33:10.117Z,81.34
2023-03-11T01:35:40.108Z,81.34
2023-03-11T01:38:08.804Z,81.06
2023-03-11T01:40:43.144Z,80.67
2023-03-11T01:43:49.545Z,81.49
2023-03-11T01:46:21.960Z,81.28
2023-03-11T01:48:52.602Z,80.96
2023-03-11T01:51:29.187Z,81.43
2023-03-11T01:54:00.935Z,81.41
2023-03-11T01:56:32.133Z,81.43
2023-03-11T01:59:00.649Z,81.49
2023-03-11T02:01:29.566Z,82.59
2023-03-11T02:03:59.110Z,82.50
2023-03-11T02:06:27.814Z,82.25
2023-03-11T02:08:57.153Z,81.04
2023-03-11T02:11:28.764Z,82.08
2023-03-11T02:14:05.059Z,81.88
2023-03-11T02:16:34.230Z,81.63
2023-03-11T02:19:27.201Z,82.02
2023-03-11T02:21:56.244Z,82.32
2023-03-11T02:24:32.191Z,82.63
2023-03-11T02:27:05.001Z,82.03
2023-03-11T02:29:35.782Z,82.64
2023-03-11T02:32:09.652Z,82.50
2023-03-11T02:34:40.564Z,82.35
2023-03-11T02:37:11.393Z,82.27
2023-03-11T02:39:42.576Z,82.94
2023-03-11T02:42:17.525Z,82.18
2023-03-11T02:44:49.236Z,82.79
2023-03-11T02:47:18.808Z,83.05
2023-03-11T02:49:47.415Z,83.00
2023-03-11T02:52:16.042Z,82.92
2023-03-11T02:54:44.536Z,82.58
2023-03-11T02:57:14.396Z,82.42
2023-03-11T02:59:42.888Z,83.38
2023-03-11T03:02:11.503Z,82.33
2023-03-11T03:04:39.988Z,81.79
2023-03-11T03:07:08.538Z,81.71
2023-03-11T03:09:38.354Z,81.90
2023-03-11T03:12:07.890Z,82.52
2023-03-11T03:14:37.722Z,82.37
2023-03-11T03:17:06.418Z,81.73
2023-03-11T03:19:35.087Z,81.26
2023-03-11T03:22:03.589Z,81.57
2023-03-11T03:24:32.533Z,82.00
2023-03-11T03:27:01.322Z,81.71
2023-03-11T03:29:29.757Z,81.07
2023-03-11T03:31:59.668Z,80.33
2023-03-11T03:34:28.124Z,81.58
2023-03-11T03:36:56.585Z,80.21
2023-03-11T03:39:25.069Z,80.88
2023-03-11T03:41:53.554Z,81.68
2023-03-11T03:44:22.265Z,82.34
2023-03-11T03:46:50.730Z,80.05
2023-03-11T03:49:20.638Z,80.12
2023-03-11T03:51:49.080Z,80.36
2023-03-11T03:54:17.625Z,80.38
2023-03-11T03:56:46.135Z,80.85
2023-03-11T03:59:14.944Z,80.64
2023-03-11T04:01:43.640Z,81.33
2023-03-11T04:04:12.094Z,80.04
2023-03-11T04:06:41.989Z,81.14
2023-03-11T04:09:12.822Z,79.73
2023-03-11T04:11:41.342Z,80.65
2023-03-11T04:14:09.797Z,80.14
2023-03-11T04:16:38.791Z,80.52
2023-03-11T04:19:07.571Z,80.07
2023-03-11T04:21:36.320Z,79.45
2023-03-11T04:24:06.415Z,79.57
2023-03-11T04:26:34.896Z,78.83
2023-03-11T04:29:03.404Z,78.54
2023-03-11T04:31:31.842Z,79.45
2023-03-11T04:34:00.309Z,78.60
2023-03-11T04:36:29.232Z,78.99
2023-03-11T04:38:58.324Z,78.94
2023-03-11T04:41:28.177Z,79.42
2023-03-11T04:43:56.651Z,79.10
2023-03-11T04:46:25.220Z,80.21
2023-03-11T04:48:53.806Z,79.84
2023-03-11T04:51:22.286Z,79.39
2023-03-11T04:53:50.958Z,79.58
2023-03-11T04:56:19.442Z,79.44
2023-03-11T04:58:49.589Z,79.60
2023-03-11T05:01:18.060Z,79.63
2023-03-11T05:03:47.135Z,79.36
2023-03-11T05:06:15.642Z,79.23
2023-03-11T05:08:44.170Z,80.03
2023-03-11T05:11:12.636Z,78.78
2023-03-11T05:13:41.095Z,79.73
2023-03-11T05:16:11.292Z,79.39
2023-03-11T05:18:39.778Z,80.01
2023-03-11T05:21:08.242Z,80.19
2023-03-11T05:23:36.718Z,80.30
2023-03-11T05:26:05.657Z,79.43
2023-03-11T05:28:34.206Z,80.69
2023-03-11T05:31:02.706Z,80.14
2023-03-11T05:33:35.620Z,79.43
2023-03-11T05:36:09.875Z,79.41
2023-03-11T05:38:39.714Z,79.41
2023-03-11T05:41:08.172Z,80.17
2023-03-11T05:43:36.611Z,78.97
2023-03-11T05:46:05.446Z,80.50
2023-03-11T05:48:36.430Z,79.15
2023-03-11T05:51:08.909Z,79.68
2023-03-11T05:53:37.760Z,79.37
2023-03-11T05:56:07.815Z,80.38
2023-03-11T05:58:36.244Z,79.39
2023-03-11T06:01:11.072Z,79.71
2023-03-11T06:03:42.133Z,78.89
2023-03-11T06:06:13.395Z,79.67
2023-03-11T06:08:46.066Z,79.58
2023-03-11T06:11:15.441Z,78.82
2023-03-11T06:13:43.884Z,79.55
2023-03-11T06:16:13.007Z,79.33
2023-03-11T06:18:42.867Z,79.36
2023-03-11T06:21:17.341Z,78.71
2023-03-11T06:23:45.948Z,79.16
2023-03-11T06:26:17.310Z,79.74
2023-03-11T06:28:46.255Z,78.81
2023-03-11T06:31:19.517Z,79.84
2023-03-11T06:33:50.086Z,79.63
2023-03-11T06:36:20.649Z,79.91
2023-03-11T06:38:50.441Z,78.54
2023-03-11T06:41:18.958Z,78.44
2023-03-11T06:43:47.661Z,78.67
2023-03-11T06:46:19.532Z,78.84
2023-03-11T06:48:52.227Z,77.68
2023-03-11T06:51:21.474Z,78.58
2023-03-11T06:53:51.902Z,78.32
2023-03-11T06:56:22.297Z,79.67
2023-03-11T06:58:51.470Z,79.40
2023-03-11T07:01:22.109Z,78.73
2023-03-11T07:03:52.890Z,78.94
2023-03-11T07:06:23.995Z,78.51
2023-03-11T07:08:54.267Z,78.06
2023-03-11T07:11:26.228Z,78.12
2023-03-11T07:13:56.005Z,78.92
2023-03-11T07:16:27.009Z,79.13
2023-03-11T07:19:00.988Z,77.22
2023-03-11T07:21:31.786Z,76.93
2023-03-11T07:24:02.937Z,77.00
2023-03-11T07:26:33.582Z,77.08
2023-03-11T07:29:02.814Z,73.64
2023-03-11T07:31:34.252Z,76.40
2023-03-11T07:34:11.166Z,75.31
2023-03-11T07:36:42.668Z,75.89
2023-03-11T07:39:16.340Z,75.19
2023-03-11T07:41:45.645Z,76.53
2023-03-11T07:44:16.268Z,76.15
2023-03-11T07:46:45.908Z,77.05
2023-03-11T07:49:15.794Z,75.72
2023-03-11T07:51:45.126Z,74.23
2023-03-11T07:54:14.566Z,75.61
2023-03-11T07:56:43.285Z,74.09
2023-03-11T07:59:11.913Z,75.42
2023-03-11T08:01:41.529Z,74.35
2023-03-11T08:04:14.389Z,73.14
2023-03-11T08:06:46.842Z,74.94
2023-03-11T08:09:15.668Z,75.22
2023-03-11T08:11:44.163Z,74.62
2023-03-11T08:14:12.649Z,73.87
2023-03-11T08:16:42.301Z,73.79
2023-03-11T08:19:12.964Z,71.88
2023-03-11T08:21:43.109Z,73.40
2023-03-11T08:24:14.100Z,71.42
2023-03-11T08:26:43.007Z,72.52
2023-03-11T08:29:12.532Z,70.43
2023-03-11T08:31:41.239Z,71.73
2023-03-11T08:34:12.323Z,71.62
2023-03-11T08:36:41.169Z,69.07
2023-03-11T08:39:11.308Z,69.80
2023-03-11T08:41:39.983Z,64.89
2023-03-11T08:44:08.773Z,70.90
2023-03-11T08:46:40.932Z,63.41
2023-03-11T08:49:09.994Z,61.97
2023-03-11T08:51:38.640Z,62.48
2023-03-11T08:54:07.786Z,60.37
2023-03-11T08:56:37.796Z,55.96
2023-03-11T08:59:06.934Z,60.08
2023-03-11T09:01:35.379Z,55.29
2023-03-11T09:04:04.063Z,62.42
2023-03-11T09:06:32.842Z,58.23
2023-03-11T09:09:01.756Z,57.64
2023-03-11T09:11:30.414Z,60.28
2023-03-11T09:14:00.308Z,59.13
2023-03-11T09:16:28.921Z,51.99
2023-03-11T09:19:00.338Z,56.26
2023-03-11T09:21:29.068Z,53.96
2023-03-11T09:23:57.527Z,54.22
2023-03-11T09:26:26.181Z,52.30
2023-03-11T09:28:54.840Z,52.06
2023-03-11T09:31:25.109Z,56.56
2023-03-11T09:33:55.763Z,52.64
2023-03-11T09:36:24.711Z,53.37
2023-03-11T09:38:53.395Z,50.94
2023-03-11T09:41:31.690Z,49.66
2023-03-11T09:44:14.778Z,46.57
2023-03-11T09:47:32.130Z,51.32
2023-03-11T09:50:16.710Z,54.60
2023-03-11T09:52:52.840Z,55.43
2023-03-11T09:55:37.671Z,57.88
2023-03-11T09:58:23.673Z,57.19
2023-03-11T10:00:53.520Z,59.65
2023-03-11T10:03:33.761Z,53.56
2023-03-11T10:06:14.318Z,57.28
2023-03-11T10:08:48.984Z,56.48
2023-03-11T10:11:49.873Z,52.22
2023-03-11T10:14:43.588Z,56.78
2023-03-11T10:17:23.964Z,51.82
2023-03-11T10:19:58.635Z,53.64
2023-03-11T10:22:36.286Z,55.63
2023-03-11T10:25:12.415Z,56.70
2023-03-11T10:27:48.233Z,57.00
2023-03-11T10:30:26.240Z,51.32
2023-03-11T10:33:00.617Z,53.92
2023-03-11T10:35:39.484Z,50.87
2023-03-11T10:38:16.528Z,52.47
2023-03-11T10:40:47.058Z,52.10
2023-03-11T10:43:20.438Z,53.05
2023-03-11T10:45:51.745Z,56.05
2023-03-11T10:48:21.895Z,53.69
2023-03-11T10:50:59.821Z,55.52
2023-03-11T10:53:28.270Z,48.99
2023-03-11T10:55:59.802Z,51.27
2023-03-11T10:58:31.080Z,54.62
2023-03-11T11:01:06.320Z,52.43
2023-03-11T11:03:35.833Z,52.39
2023-03-11T11:06:08.961Z,51.26
2023-03-11T11:08:37.445Z,52.28
2023-03-11T11:11:22.334Z,47.76
2023-03-11T11:13:58.864Z,48.72
2023-03-11T11:16:28.952Z,51.18
2023-03-11T11:19:04.354Z,51.05
2023-03-11T11:21:37.536Z,50.16
2023-03-11T11:24:16.694Z,49.39
2023-03-11T11:27:05.036Z,47.00
2023-03-11T11:29:34.854Z,47.21
2023-03-11T11:32:21.612Z,47.23
2023-03-11T11:35:00.387Z,49.23
2023-03-11T11:37:33.573Z,50.33
2023-03-11T11:40:11.705Z,51.31
2023-03-11T11:42:42.693Z,53.20
2023-03-11T11:45:18.313Z,49.17
2023-03-11T11:47:50.911Z,50.98
2023-03-11T11:50:27.803Z,48.94
2023-03-11T11:53:10.147Z,46.04
2023-03-11T11:55:43.533Z,47.93
2023-03-11T11:58:13.390Z,53.31
2023-03-11T12:00:57.124Z,49.89
2023-03-11T12:04:12.685Z,50.43
2023-03-11T12:06:49.307Z,50.71
2023-03-11T12:09:29.283Z,50.69
2023-03-11T12:12:08.451Z,51.12
2023-03-11T12:14:43.717Z,50.25
2023-03-11T12:17:15.014Z,51.91
2023-03-11T12:19:51.264Z,50.17
2023-03-11T12:23:11.267Z,54.12
2023-03-11T12:25:49.605Z,51.74
2023-03-11T12:28:24.808Z,55.59
2023-03-11T12:30:57.884Z,51.52
2023-03-11T12:33:33.174Z,53.83
2023-03-11T12:38:50.493Z,52.58
2023-03-11T12:41:33.758Z,51.02
2023-03-11T12:44:22.248Z,54.59
2023-03-11T12:47:25.701Z,49.61
2023-03-11T12:49:56.061Z,54.27
2023-03-11T12:52:53.422Z,52.25
2023-03-11T12:55:35.287Z,52.62
2023-03-11T12:58:34.284Z,53.59
2023-03-11T13:01:36.127Z,51.45
2023-03-11T13:04:26.006Z,52.20
2023-03-11T13:07:32.466Z,52.03
2023-03-11T13:10:20.439Z,53.43
2023-03-11T13:12:50.441Z,54.05
2023-03-11T13:15:37.056Z,49.46
2023-03-11T13:18:25.127Z,49.70
2023-03-11T13:20:58.908Z,54.35
2023-03-11T13:23:37.741Z,52.12
2023-03-11T13:26:40.423Z,45.98
2023-03-11T13:29:49.623Z,48.79
2023-03-11T13:32:56.302Z,48.56
2023-03-11T13:35:47.874Z,47.82
2023-03-11T13:38:40.997Z,46.88
2023-03-11T13:41:17.870Z,47.94
2023-03-11T13:43:50.402Z,47.44
2023-03-11T13:46:30.155Z,52.45
2023-03-11T13:49:07.720Z,48.75
2023-03-11T13:51:42.457Z,44.85
2023-03-11T13:54:33.925Z,46.56
2023-03-11T13:57:04.272Z,47.09
2023-03-11T13:59:34.975Z,45.49
2023-03-11T14:02:16.970Z,50.11
2023-03-11T14:04:51.577Z,46.84
2023-03-11T14:07:28.644Z,49.49
2023-03-11T14:10:31.227Z,44.98
2023-03-11T14:13:09.093Z,49.01
2023-03-11T14:15:48.805Z,50.71
2023-03-11T14:18:37.840Z,50.14
2023-03-11T14:21:13.925Z,50.78
2023-03-11T14:23:44.928Z,48.80
2023-03-11T14:26:20.170Z,51.98
2023-03-11T14:28:52.701Z,50.01
2023-03-11T14:31:33.499Z,48.07
2023-03-11T14:34:06.846Z,50.15
2023-03-11T14:36:44.960Z,49.82
2023-03-11T14:39:29.666Z,51.15
2023-03-11T14:42:05.596Z,51.31
2023-03-11T14:44:37.447Z,50.84
2023-03-11T14:47:13.314Z,50.82
2023-03-11T14:49:43.371Z,51.76
2023-03-11T14:52:20.557Z,52.83
2023-03-11T14:54:50.668Z,53.06
2023-03-11T14:57:24.420Z,52.21
2023-03-11T14:59:54.602Z,50.67
2023-03-11T15:02:41.899Z,52.95
2023-03-11T15:05:19.196Z,52.07
2023-03-11T15:07:52.860Z,53.30
2023-03-11T15:10:21.725Z,54.16
2023-03-11T15:12:50.238Z,53.45
2023-03-11T15:15:28.510Z,53.85
2023-03-11T15:17:58.973Z,54.79
2023-03-11T15:20:33.981Z,53.89
2023-03-11T15:23:07.725Z,53.23
2023-03-11T15:25:41.014Z,54.71
2023-03-11T15:28:28.423Z,54.64
2023-03-11T15:31:36.822Z,54.76
2023-03-11T15:34:25.182Z,54.33
2023-03-11T15:37:21.379Z,55.26
2023-03-11T15:39:53.570Z,54.77
2023-03-11T15:42:25.776Z,54.72
2023-03-11T15:45:17.639Z,54.94
2023-03-11T15:47:48.138Z,54.72
2023-03-11T15:50:27.334Z,55.85
2023-03-11T15:52:59.968Z,56.36
2023-03-11T15:55:29.825Z,55.27
2023-03-11T15:58:05.452Z,55.10
2023-03-11T16:00:34.284Z,56.17
2023-03-11T16:03:02.828Z,54.85
2023-03-11T16:05:31.396Z,55.96
2023-03-11T16:07:59.832Z,55.40
2023-03-11T16:10:29.782Z,55.08
2023-03-11T16:12:58.535Z,55.46
2023-03-11T16:15:30.091Z,56.34
2023-03-11T16:18:01.808Z,56.59
2023-03-11T16:20:34.320Z,55.13
2023-03-11T16:23:03.029Z,54.76
2023-03-11T16:25:36.520Z,56.85
2023-03-11T16:28:05.906Z,56.01
2023-03-11T16:30:36.052Z,54.83
2023-03-11T16:33:05.304Z,56.82
2023-03-11T16:35:34.412Z,56.64
2023-03-11T16:38:02.968Z,57.07
2023-03-11T16:40:32.813Z,55.41
2023-03-11T16:43:04.274Z,54.66
2023-03-11T16:45:33.218Z,54.97
2023-03-11T16:48:02.330Z,58.14
2023-03-11T16:50:31.320Z,55.54
2023-03-11T16:53:00.254Z,56.41
2023-03-11T16:55:29.897Z,54.39
2023-03-11T16:57:59.755Z,54.48
2023-03-11T17:00:28.291Z,56.03
2023-03-11T17:02:56.948Z,56.47
2023-03-11T17:05:25.528Z,56.78
2023-03-11T17:08:00.069Z,57.50
2023-03-11T17:10:29.548Z,55.77
2023-03-11T17:12:59.764Z,56.54
2023-03-11T17:15:28.253Z,57.19
2023-03-11T17:17:56.980Z,57.72
2023-03-11T17:20:25.785Z,57.67
2023-03-11T17:22:54.240Z,57.30
2023-03-11T17:25:22.758Z,57.95
2023-03-11T17:27:51.693Z,58.86
2023-03-11T17:30:36.045Z,58.88
2023-03-11T17:33:05.732Z,58.43
2023-03-11T17:35:34.800Z,59.09
2023-03-11T17:38:04.413Z,59.02
2023-03-11T17:40:32.944Z,58.80
2023-03-11T17:43:01.591Z,59.99
2023-03-11T17:45:31.657Z,58.72
2023-03-11T17:48:00.341Z,60.35
2023-03-11T17:50:28.953Z,61.50
2023-03-11T17:52:57.809Z,61.20
2023-03-11T17:55:26.383Z,61.38
2023-03-11T17:57:54.877Z,60.63
2023-03-11T18:00:24.087Z,59.47
2023-03-11T18:02:54.097Z,62.91
2023-03-11T18:05:23.136Z,62.69
2023-03-11T18:07:51.662Z,63.96
2023-03-11T18:10:21.505Z,63.63
2023-03-11T18:12:50.173Z,63.42
2023-03-11T18:15:19.945Z,62.42
2023-03-11T18:17:49.147Z,61.76
2023-03-11T18:20:20.456Z,61.91
2023-03-11T18:22:48.913Z,61.12
2023-03-11T18:25:17.570Z,61.97
2023-03-11T18:27:46.218Z,62.66
2023-03-11T18:30:15.595Z,62.57
2023-03-11T18:32:44.850Z,61.86
2023-03-11T18:35:14.219Z,62.33
2023-03-11T18:37:44.247Z,65.08
2023-03-11T18:40:14.682Z,66.05
2023-03-11T18:42:43.405Z,63.58
2023-03-11T18:45:14.691Z,64.56
2023-03-11T18:47:43.164Z,67.04
2023-03-11T18:50:13.250Z,66.25
2023-03-11T18:52:43.128Z,65.38
2023-03-11T18:55:12.107Z,65.45
2023-03-11T18:57:43.185Z,67.77
2023-03-11T19:00:13.424Z,65.54
2023-03-11T19:02:42.022Z,65.46
2023-03-11T19:05:12.861Z,65.58
2023-03-11T19:07:41.312Z,66.07
2023-03-11T19:10:15.141Z,67.02
2023-03-11T19:12:45.229Z,67.62
2023-03-11T19:15:13.879Z,67.68
2023-03-11T19:17:42.686Z,68.86
2023-03-11T19:20:13.184Z,68.74
2023-03-11T19:22:41.668Z,67.61
2023-03-11T19:25:11.767Z,67.81
2023-03-11T19:27:40.350Z,67.58
2023-03-11T19:30:10.837Z,67.16
2023-03-11T19:32:39.408Z,69.14
2023-03-11T19:35:11.175Z,68.42
2023-03-11T19:37:39.880Z,70.80
2023-03-11T19:40:12.778Z,72.19
2023-03-11T19:42:41.258Z,69.37
2023-03-11T19:45:10.959Z,70.33
2023-03-11T19:47:39.875Z,70.27
2023-03-11T19:50:09.947Z,70.59
2023-03-11T19:52:38.690Z,69.36
2023-03-11T19:55:08.718Z,73.14
2023-03-11T19:57:38.880Z,73.37
2023-03-11T20:00:09.683Z,71.41
2023-03-11T20:02:38.210Z,73.30
2023-03-11T20:05:08.485Z,74.03
2023-03-11T20:07:36.941Z,74.05
2023-03-11T20:10:06.426Z,74.48
2023-03-11T20:12:36.468Z,73.87
2023-03-11T20:15:07.611Z,76.21
2023-03-11T20:17:36.039Z,74.58
2023-03-11T20:20:04.850Z,75.71
2023-03-11T20:22:33.324Z,75.23
2023-03-11T20:25:01.786Z,73.93
2023-03-11T20:27:30.725Z,73.35
2023-03-11T20:29:59.407Z,72.35
2023-03-11T20:32:30.945Z,73.90
2023-03-11T20:34:59.660Z,74.62
2023-03-11T20:37:30.063Z,73.80
2023-03-11T20:39:58.773Z,73.09
2023-03-11T20:42:27.251Z,74.33
2023-03-11T20:44:56.748Z,75.00
2023-03-11T20:47:25.613Z,73.48
2023-03-11T20:49:57.178Z,75.23
2023-03-11T20:52:27.061Z,74.93
2023-03-11T20:54:55.565Z,74.30
2023-03-11T20:57:24.359Z,73.74
2023-03-11T20:59:53.140Z,77.02
2023-03-11T21:02:22.650Z,75.55
2023-03-11T21:04:51.190Z,74.13
2023-03-11T21:07:21.003Z,74.52
2023-03-11T21:09:54.581Z,75.10
2023-03-11T21:12:23.498Z,74.46
2023-03-11T21:14:51.977Z,75.95
2023-03-11T21:17:20.543Z,74.28
2023-03-11T21:19:49.014Z,75.04
2023-03-11T21:22:17.527Z,75.02
2023-03-11T21:24:47.630Z,78.85
2023-03-11T21:27:16.384Z,77.91
2023-03-11T21:29:45.025Z,78.64
2023-03-11T21:32:13.923Z,77.28
2023-03-11T21:34:42.590Z,77.17
2023-03-11T21:37:11.347Z,78.59
2023-03-11T21:39:39.895Z,79.15
2023-03-11T21:42:09.799Z,77.09
2023-03-11T21:44:38.530Z,75.53
2023-03-11T21:47:07.342Z,75.78
2023-03-11T21:49:36.332Z,75.66
2023-03-11T21:52:05.144Z,75.60
2023-03-11T21:54:33.711Z,75.91
2023-03-11T21:57:03.814Z,77.92
2023-03-11T21:59:33.854Z,78.18
2023-03-11T22:02:03.542Z,76.64
2023-03-11T22:04:33.059Z,78.49
2023-03-11T22:07:01.758Z,76.36
2023-03-11T22:09:30.525Z,78.59
2023-03-11T22:11:59.590Z,78.83
2023-03-11T22:14:28.264Z,79.75
2023-03-11T22:16:58.311Z,81.08
2023-03-11T22:19:27.297Z,80.11
2023-03-11T22:21:55.763Z,80.15
2023-03-11T22:24:24.291Z,78.93
2023-03-11T22:26:52.982Z,78.28
2023-03-11T22:29:21.531Z,79.02
2023-03-11T22:31:50.087Z,78.31
2023-03-11T22:34:19.896Z,79.38
2023-03-11T22:36:48.432Z,78.09
2023-03-11T22:39:16.909Z,80.30
2023-03-11T22:41:45.371Z,79.95
2023-03-11T22:44:13.851Z,79.24
2023-03-11T22:46:42.291Z,79.54
2023-03-11T22:49:10.850Z,81.01
2023-03-11T22:51:40.904Z,79.69
2023-03-11T22:54:09.533Z,81.37
2023-03-11T22:56:38.229Z,79.74
2023-03-11T22:59:06.775Z,79.73
2023-03-11T23:01:35.239Z,80.06
2023-03-11T23:04:03.818Z,79.22
2023-03-11T23:06:32.397Z,79.21
2023-03-11T23:09:02.218Z,79.06
2023-03-11T23:11:30.780Z,80.87
2023-03-11T23:13:59.824Z,80.64
2023-03-11T23:16:28.332Z,78.98
2023-03-11T23:18:57.523Z,78.60
2023-03-11T23:21:29.302Z,78.57
2023-03-11T23:24:00.114Z,78.60
2023-03-11T23:26:30.955Z,78.42
2023-03-11T23:29:01.000Z,78.00
2023-03-11T23:31:31.234Z,79.48
2023-03-11T23:34:00.021Z,78.81
2023-03-11T23:36:30.408Z,78.51
2023-03-11T23:38:59.518Z,78.01
2023-03-11T23:41:29.398Z,77.49
2023-03-11T23:43:57.906Z,77.21
2023-03-11T23:46:26.684Z,78.45
2023-03-11T23:48:55.161Z,78.09
2023-03-11T23:51:23.712Z,77.80
2023-03-11T23:53:52.164Z,77.04
2023-03-11T23:56:21.047Z,76.53
2023-03-11T23:58:50.998Z,76.97
